Map

Track Data

SID SEASON NUMBER BASIN SUBBASIN NAME ISO_TIME NATURE LAT LON WMO_WIND WMO_PRES WMO_AGENCY TRACK_TYPE DIST2LAND LANDFALL IFLAG USA_AGENCY USA_ATCF_ID USA_LAT USA_LON USA_RECORD USA_STATUS USA_WIND USA_PRES USA_SSHS USA_R34_NE USA_R34_SE USA_R34_SW USA_R34_NW USA_R50_NE USA_R50_SE USA_R50_SW USA_R50_NW USA_R64_NE USA_R64_SE USA_R64_SW USA_R64_NW USA_POCI USA_ROCI USA_RMW USA_EYE TOKYO_LAT TOKYO_LON TOKYO_GRADE TOKYO_WIND TOKYO_PRES TOKYO_R50_DIR TOKYO_R50_LONG TOKYO_R50_SHORT TOKYO_R30_DIR TOKYO_R30_LONG TOKYO_R30_SHORT TOKYO_LAND CMA_LAT CMA_LON CMA_CAT CMA_WIND CMA_PRES HKO_LAT HKO_LON HKO_CAT HKO_WIND HKO_PRES NEWDELHI_LAT NEWDELHI_LON NEWDELHI_GRADE NEWDELHI_WIND NEWDELHI_PRES NEWDELHI_CI NEWDELHI_DP NEWDELHI_POCI REUNION_LAT REUNION_LON REUNION_TYPE REUNION_WIND REUNION_PRES REUNION_TNUM REUNION_CI REUNION_RMW REUNION_R34_NE REUNION_R34_SE REUNION_R34_SW REUNION_R34_NW REUNION_R50_NE REUNION_R50_SE REUNION_R50_SW REUNION_R50_NW REUNION_R64_NE REUNION_R64_SE REUNION_R64_SW REUNION_R64_NW BOM_LAT BOM_LON BOM_TYPE BOM_WIND BOM_PRES BOM_TNUM BOM_CI BOM_RMW BOM_R34_NE BOM_R34_SE BOM_R34_SW BOM_R34_NW BOM_R50_NE BOM_R50_SE BOM_R50_SW BOM_R50_NW BOM_R64_NE BOM_R64_SE BOM_R64_SW BOM_R64_NW BOM_ROCI BOM_POCI BOM_EYE BOM_POS_METHOD BOM_PRES_METHOD NADI_LAT NADI_LON NADI_CAT NADI_WIND NADI_PRES WELLINGTON_LAT WELLINGTON_LON WELLINGTON_WIND WELLINGTON_PRES DS824_LAT DS824_LON DS824_STAGE DS824_WIND DS824_PRES TD9636_LAT TD9636_LON TD9636_STAGE TD9636_WIND TD9636_PRES TD9635_LAT TD9635_LON TD9635_WIND TD9635_PRES TD9635_ROCI NEUMANN_LAT NEUMANN_LON NEUMANN_CLASS NEUMANN_WIND NEUMANN_PRES MLC_LAT MLC_LON MLC_CLASS MLC_WIND MLC_PRES USA_GUST BOM_GUST BOM_GUST_PER REUNION_GUST REUNION_GUST_PER USA_SEAHGT USA_SEARAD_NE USA_SEARAD_SE USA_SEARAD_SW USA_SEARAD_NW STORM_SPEED STORM_DIR
1969248N15343 1969 69 NA NA NOT_NAMED 1969-09-05 00:00:00 TS 14.9000 -17.0000 25 hurdat_atl main 0 0 O_____________ hurdat_atl AL151969 14.9000 -17.0000 TD 25 -1 9 269
1969248N15343 1969 69 NA NA NOT_NAMED 1969-09-05 03:00:00 TS 14.8926 -17.4400 main 15 15 P_____________ AL151969 14.8926 -17.4400 TD 25 -1 9 270
1969248N15343 1969 69 NA NA NOT_NAMED 1969-09-05 06:00:00 TS 14.9000 -17.9000 25 hurdat_atl main 48 48 O_____________ hurdat_atl AL151969 14.9000 -17.9000 TD 25 -1 9 273
1969248N15343 1969 69 NA NA NOT_NAMED 1969-09-05 09:00:00 TS 14.9349 -18.3925 main 99 99 P_____________ AL151969 14.9349 -18.3925 TD 25 -1 10 276
1969248N15343 1969 69 NA NA NOT_NAMED 1969-09-05 12:00:00 TS 15.0000 -18.9000 25 hurdat_atl main 154 154 O_____________ hurdat_atl AL151969 15.0000 -18.9000 TD 25 -1 10 277
1969248N15343 1969 69 NA NA NOT_NAMED 1969-09-05 15:00:00 TS 15.0548 -19.3928 main 209 209 P_____________ AL151969 15.0548 -19.3928 TD 25 -1 10 282
1969248N15343 1969 69 NA NA NOT_NAMED 1969-09-05 18:00:00 TS 15.2000 -19.9000 25 hurdat_atl main 263 263 O_____________ hurdat_atl AL151969 15.2000 -19.9000 TD 25 -1 11 296
1969248N15343 1969 69 NA NA NOT_NAMED 1969-09-05 21:00:00 TS 15.5650 -20.4569 main 337 337 P_____________ AL151969 15.5650 -20.4569 TD 25 -1 13 303
1969248N15343 1969 69 NA NA NOT_NAMED 1969-09-06 00:00:00 TS 15.9000 -21.0000 25 hurdat_atl main 398 398 O_____________ hurdat_atl AL151969 15.9000 -21.0000 TD 25 -1 10 293
1969248N15343 1969 69 NA NA NOT_NAMED 1969-09-06 03:00:00 TS 15.9441 -21.3830 main 439 439 P_____________ AL151969 15.9441 -21.3830 TD 25 -1 9 270
1969248N15343 1969 69 NA NA NOT_NAMED 1969-09-06 06:00:00 TS 15.9000 -21.9000 25 hurdat_atl main 490 490 O_____________ hurdat_atl AL151969 15.9000 -21.9000 TD 25 -1 14 269
1969248N15343 1969 69 NA NA NOT_NAMED 1969-09-06 09:00:00 TS 15.9135 -22.8628 main 594 594 P_____________ AL151969 15.9135 -22.8628 TD 27 -1 19 273
1969248N15343 1969 69 NA NA NOT_NAMED 1969-09-06 12:00:00 TS 16.0000 -23.9000 30 hurdat_atl main 701 701 O_____________ hurdat_atl AL151969 16.0000 -23.9000 TD 30 -1 18 281
1969248N15343 1969 69 NA NA NOT_NAMED 1969-09-06 15:00:00 TS 16.2569 -24.6595 main 792 792 P_____________ AL151969 16.2569 -24.6595 TD 30 -1 14 290
1969248N15343 1969 69 NA NA NOT_NAMED 1969-09-06 18:00:00 TS 16.5000 -25.3000 30 hurdat_atl main 859 859 O_____________ hurdat_atl AL151969 16.5000 -25.3000 TD 30 -1 13 282
1969248N15343 1969 69 NA NA NOT_NAMED 1969-09-06 21:00:00 TS 16.5300 -25.9604 main 932 932 P_____________ AL151969 16.5300 -25.9604 TD 30 -1 12 270
1969248N15343 1969 69 NA NA NOT_NAMED 1969-09-07 00:00:00 TS 16.5000 -26.5000 30 hurdat_atl main 984 984 O_____________ hurdat_atl AL151969 16.5000 -26.5000 TD 30 -1 8 271
1969248N15343 1969 69 NA NA NOT_NAMED 1969-09-07 03:00:00 TS 16.5494 -26.8000 main 1016 1016 P_____________ AL151969 16.5494 -26.8000 TD 30 -1 6 280
1969248N15343 1969 69 NA NA NOT_NAMED 1969-09-07 06:00:00 TS 16.6000 -27.1000 30 hurdat_atl main 1049 1049 O_____________ hurdat_atl AL151969 16.6000 -27.1000 TD 30 -1 8 274
1969248N15343 1969 69 NA NA NOT_NAMED 1969-09-07 09:00:00 TS 16.6074 -27.6326 main 1102 1102 P_____________ AL151969 16.6074 -27.6326 TD 30 -1 12 270
1969248N15343 1969 69 NA NA NOT_NAMED 1969-09-07 12:00:00 TS 16.6000 -28.3000 30 hurdat_atl main 1176 1176 O_____________ hurdat_atl AL151969 16.6000 -28.3000 TD 30 -1 14 270
1969248N15343 1969 69 NA NA NOT_NAMED 1969-09-07 15:00:00 TS 16.6003 -29.0575 main 1260 1260 P_____________ AL151969 16.6003 -29.0575 TD 30 -1 14 270
1969248N15343 1969 69 NA NA NOT_NAMED 1969-09-07 18:00:00 TS 16.6000 -29.8000 30 hurdat_atl main 1334 1334 O_____________ hurdat_atl AL151969 16.6000 -29.8000 TD 30 -1 13 269
1969248N15343 1969 69 NA NA NOT_NAMED 1969-09-07 21:00:00 TS 16.5770 -30.3727 main 1397 1397 P_____________ AL151969 16.5770 -30.3727 TD 30 -1 11 270
1969248N15343 1969 69 NA NA NOT_NAMED 1969-09-08 00:00:00 TS 16.6000 -30.9000 30 hurdat_atl main 1450 1450 O_____________ hurdat_atl AL151969 16.6000 -30.9000 TD 30 -1 10 280
1969248N15343 1969 69 NA NA NOT_NAMED 1969-09-08 03:00:00 TS 16.7488 -31.4023 main 1504 1504 P_____________ AL151969 16.7488 -31.4023 TD 30 -1 12 285
1969248N15343 1969 69 NA NA NOT_NAMED 1969-09-08 06:00:00 TS 16.9000 -32.1000 30 hurdat_atl main 1581 1581 O_____________ hurdat_atl AL151969 16.9000 -32.1000 TD 30 -1 18 275
1969248N15343 1969 69 NA NA NOT_NAMED 1969-09-08 09:00:00 TS 16.9161 -33.2405 main 1697 1697 P_____________ AL151969 16.9161 -33.2405 TD 30 -1 23 270
1969248N15343 1969 69 NA NA NOT_NAMED 1969-09-08 12:00:00 TS 16.9000 -34.5000 30 hurdat_atl main 1835 1835 O_____________ hurdat_atl AL151969 16.9000 -34.5000 TD 30 -1 23 271
1969248N15343 1969 69 NA NA NOT_NAMED 1969-09-08 15:00:00 TS 16.9502 -35.6347 main 1953 1953 P_____________ AL151969 16.9502 -35.6347 TD 30 -1 19 273
1969248N15343 1969 69 NA NA NOT_NAMED 1969-09-08 18:00:00 TS 17.0000 -36.5000 30 hurdat_atl main 2048 2048 O_____________ hurdat_atl AL151969 17.0000 -36.5000 TD 30 -1 11 273
1969248N15343 1969 69 NA NA NOT_NAMED 1969-09-08 21:00:00 TS 17.0131 -36.7850 main 2080 2080 P_____________ AL151969 17.0131 -36.7850 TD 27 -1 6 270
1969248N15343 1969 69 NA NA NOT_NAMED 1969-09-09 00:00:00 TS 17.0000 -37.1000 25 hurdat_atl main 2103 2024 O_____________ hurdat_atl AL151969 17.0000 -37.1000 TD 25 -1 13 267
1969248N15343 1969 69 NA NA NOT_NAMED 1969-09-09 03:00:00 TS 16.9514 -38.1178 main 2024 1932 P_____________ AL151969 16.9514 -38.1178 TD 25 -1 21 267
1969248N15343 1969 69 NA NA NOT_NAMED 1969-09-09 06:00:00 TS 16.9000 -39.3000 25 hurdat_atl main 1925 1866 O_____________ hurdat_atl AL151969 16.9000 -39.3000 TD 25 -1 19 268
1969248N15343 1969 69 NA NA NOT_NAMED 1969-09-09 09:00:00 TS 16.8908 -40.1274 main 1866 1810 P_____________ AL151969 16.8908 -40.1274 TD 25 -1 16 270
1969248N15343 1969 69 NA NA NOT_NAMED 1969-09-09 12:00:00 TS 16.9000 -41.0000 25 hurdat_atl main 1804 1725 O_____________ hurdat_atl AL151969 16.9000 -41.0000 TD 25 -1 20 270
1969248N15343 1969 69 NA NA NOT_NAMED 1969-09-09 15:00:00 TS 16.9014 -42.2650 main 1719 1649 P_____________ AL151969 16.9014 -42.2650 TD 25 -1 24 270
1969248N15343 1969 69 NA NA NOT_NAMED 1969-09-09 18:00:00 TS 16.9000 -43.5000 25 hurdat_atl main 1643 1592 O_____________ hurdat_atl AL151969 16.9000 -43.5000 TD 25 -1 20 270
1969248N15343 1969 69 NA NA NOT_NAMED 1969-09-09 21:00:00 TS 16.8991 -44.3699 main 1586 1550 P_____________ AL151969 16.8991 -44.3699 TD 25 -1 14 270
1969248N15343 1969 69 NA NA NOT_NAMED 1969-09-10 00:00:00 TS 16.9000 -45.0000 25 hurdat_atl main 1550 O_____________ hurdat_atl AL151969 16.9000 -45.0000 TD 25 -1 12 270

About IBTrACS Database

This database is a web-friendly format of International Best Track Archive for Climate Stewardship (IBTrACS), a global best track data archive curated by NOAA dating back to 1842.

Updated: 2021-10-08